createdAt,value
2023-04-18T00:00:24.263Z,73.45
2023-04-18T00:01:14.330Z,75.01
2023-04-18T00:02:04.458Z,74.76
2023-04-18T00:02:54.633Z,75.43
2023-04-18T00:03:44.609Z,76.72
2023-04-18T00:04:34.688Z,72.44
2023-04-18T00:05:24.761Z,73.94
2023-04-18T00:06:14.606Z,73.73
2023-04-18T00:07:04.664Z,76.94
2023-04-18T00:07:54.746Z,75.28
2023-04-18T00:08:44.832Z,73.97
2023-04-18T00:09:34.960Z,77.62
2023-04-18T00:10:24.909Z,75.25
2023-04-18T00:11:14.997Z,74.84
2023-04-18T00:12:05.038Z,74.19
2023-04-18T00:12:55.144Z,75.03
2023-04-18T00:13:45.145Z,73.74
2023-04-18T00:14:35.209Z,72.18
2023-04-18T00:15:25.220Z,73.27
2023-04-18T00:16:15.311Z,74.42
2023-04-18T00:17:05.443Z,74.78
2023-04-18T00:17:55.410Z,76.71
2023-04-18T00:18:45.454Z,74.21
2023-04-18T00:19:35.542Z,72.75
2023-04-18T00:20:25.560Z,75.08
2023-04-18T00:21:15.635Z,70.56
2023-04-18T00:22:05.712Z,72.07
2023-04-18T00:22:55.783Z,69.69
2023-04-18T00:23:45.860Z,73.11
2023-04-18T00:24:35.952Z,72.89
2023-04-18T00:25:25.971Z,77.28
2023-04-18T00:26:16.044Z,74.50
2023-04-18T00:27:06.235Z,73.19
2023-04-18T00:27:56.285Z,71.65
2023-04-18T00:28:46.373Z,74.02
2023-04-18T00:29:36.445Z,72.32
2023-04-18T00:30:26.467Z,66.94
2023-04-18T00:31:16.614Z,71.29
2023-04-18T00:32:06.592Z,68.61
2023-04-18T00:32:56.744Z,70.15
2023-04-18T00:33:46.746Z,65.26
2023-04-18T00:34:36.833Z,59.39
2023-04-18T00:35:26.859Z,66.86
2023-04-18T00:36:17.188Z,63.75
2023-04-18T00:37:07.266Z,67.04
2023-04-18T00:37:57.324Z,64.08
2023-04-18T00:38:47.398Z,64.67
2023-04-18T00:39:37.447Z,61.56
2023-04-18T00:40:27.479Z,66.88
2023-04-18T00:41:17.543Z,61.59
2023-04-18T00:42:07.616Z,62.41
2023-04-18T00:42:57.673Z,66.14
2023-04-18T00:43:47.761Z,66.77
2023-04-18T00:44:37.818Z,61.90
2023-04-18T00:45:27.851Z,60.32
2023-04-18T00:46:17.957Z,59.96
2023-04-18T00:47:07.945Z,59.26
2023-04-18T00:47:58.090Z,63.88
2023-04-18T00:48:48.032Z,61.97
2023-04-18T00:49:38.120Z,62.40
2023-04-18T00:50:28.164Z,61.32
2023-04-18T00:51:18.231Z,63.74
2023-04-18T00:52:08.293Z,63.15
2023-04-18T00:52:58.356Z,59.05
2023-04-18T00:53:48.419Z,58.67
2023-04-18T00:54:38.529Z,60.17
2023-04-18T00:55:28.544Z,58.19
2023-04-18T00:56:18.598Z,54.99
2023-04-18T00:57:08.644Z,62.48
2023-04-18T00:57:58.704Z,58.54
2023-04-18T00:58:49.032Z,62.96
2023-04-18T00:59:39.129Z,62.55
2023-04-18T01:00:29.137Z,60.35
2023-04-18T01:01:19.255Z,60.78
2023-04-18T01:02:09.320Z,67.57
2023-04-18T01:02:59.409Z,62.20
2023-04-18T01:03:49.401Z,66.40
2023-04-18T01:04:39.496Z,64.70
2023-04-18T01:05:29.488Z,63.19
2023-04-18T01:06:19.556Z,64.51
2023-04-18T01:07:09.627Z,60.92
2023-04-18T01:07:59.684Z,63.82
2023-04-18T01:08:49.732Z,64.99
2023-04-18T01:09:39.812Z,66.41
2023-04-18T01:10:29.840Z,66.79
2023-04-18T01:11:19.885Z,68.69
2023-04-18T01:12:09.965Z,65.74
2023-04-18T01:13:00.065Z,66.77
2023-04-18T01:13:50.101Z,68.77
2023-04-18T01:14:40.436Z,64.40
2023-04-18T01:15:30.489Z,63.10
2023-04-18T01:16:20.598Z,66.77
2023-04-18T01:17:10.884Z,64.55
2023-04-18T01:18:00.924Z,66.71
2023-04-18T01:18:50.974Z,67.27
2023-04-18T01:19:41.063Z,64.68
2023-04-18T01:20:31.078Z,65.46
2023-04-18T01:21:21.142Z,66.14
2023-04-18T01:22:11.221Z,65.36
2023-04-18T01:23:01.272Z,66.03
2023-04-18T01:23:51.391Z,66.61
2023-04-18T01:24:41.479Z,68.30
2023-04-18T01:25:31.517Z,66.39
2023-04-18T01:26:21.583Z,65.04
2023-04-18T01:27:11.639Z,65.47
2023-04-18T01:28:01.696Z,66.19
2023-04-18T01:28:51.767Z,60.72
2023-04-18T01:29:41.852Z,63.45
2023-04-18T01:30:31.889Z,66.19
2023-04-18T01:31:21.970Z,67.76
2023-04-18T01:32:11.993Z,60.06
2023-04-18T01:33:02.387Z,66.74
2023-04-18T01:33:52.369Z,62.38
2023-04-18T01:34:42.429Z,62.07
2023-04-18T01:35:32.720Z,61.81
2023-04-18T01:36:22.784Z,60.22
2023-04-18T01:37:12.852Z,61.42
2023-04-18T01:38:02.912Z,60.10
2023-04-18T01:38:53.008Z,58.89
2023-04-18T01:39:43.028Z,61.05
2023-04-18T01:40:33.064Z,60.50
2023-04-18T01:41:23.104Z,62.73
2023-04-18T01:42:13.172Z,59.82
2023-04-18T01:43:03.248Z,58.66
2023-04-18T01:43:53.317Z,59.38
2023-04-18T01:44:43.663Z,60.35
2023-04-18T01:45:33.713Z,60.97
2023-04-18T01:46:24.005Z,60.60
2023-04-18T01:47:14.099Z,63.33
2023-04-18T01:48:04.172Z,60.82
2023-04-18T01:48:54.202Z,63.28
2023-04-18T01:49:44.255Z,60.09
2023-04-18T01:50:34.288Z,59.27
2023-04-18T01:51:24.388Z,58.02
2023-04-18T01:52:14.390Z,63.53
2023-04-18T01:53:04.451Z,57.30
2023-04-18T01:53:54.524Z,59.35
2023-04-18T01:54:44.596Z,57.45
2023-04-18T01:55:34.619Z,60.82
2023-04-18T01:56:24.679Z,58.58
2023-04-18T01:57:14.749Z,57.54
2023-04-18T01:58:04.805Z,57.86
2023-04-18T01:58:54.861Z,49.58
2023-04-18T01:59:44.935Z,51.61
2023-04-18T02:00:35.004Z,45.39
2023-04-18T02:01:25.184Z,44.33
2023-04-18T02:02:15.120Z,47.68
2023-04-18T02:03:05.345Z,42.13
2023-04-18T02:03:55.450Z,45.61
2023-04-18T02:04:45.236Z,44.36
2023-04-18T02:05:35.252Z,42.67
2023-04-18T02:06:25.317Z,42.87
2023-04-18T02:07:15.604Z,39.35
2023-04-18T02:08:05.674Z,40.40
2023-04-18T02:08:55.717Z,40.17
2023-04-18T02:09:45.801Z,36.94
2023-04-18T02:10:35.829Z,36.19
2023-04-18T02:11:25.891Z,34.44
2023-04-18T02:12:15.954Z,32.93
2023-04-18T02:13:06.028Z,33.79
2023-04-18T02:13:56.092Z,33.85
2023-04-18T02:14:46.164Z,32.15
2023-04-18T02:15:36.191Z,29.97
2023-04-18T02:16:26.362Z,36.38
2023-04-18T02:17:16.282Z,31.27
2023-04-18T02:18:06.384Z,33.31
2023-04-18T02:18:56.407Z,32.69
2023-04-18T02:19:46.476Z,35.12
2023-04-18T02:20:36.599Z,33.49
2023-04-18T02:21:26.652Z,39.18
2023-04-18T02:22:16.715Z,37.13
2023-04-18T02:23:06.802Z,36.45
2023-04-18T02:23:56.847Z,33.56
2023-04-18T02:24:46.926Z,34.48
2023-04-18T02:25:36.945Z,39.67
2023-04-18T02:26:27.005Z,41.25
2023-04-18T02:27:17.069Z,41.78
2023-04-18T02:28:07.133Z,42.82
2023-04-18T02:28:57.188Z,39.94
2023-04-18T02:29:47.521Z,45.11
2023-04-18T02:30:37.581Z,39.45
2023-04-18T02:31:27.686Z,42.02
2023-04-18T02:32:17.698Z,43.58
2023-04-18T02:33:07.912Z,39.84
2023-04-18T02:33:57.842Z,42.32
2023-04-18T02:34:47.908Z,41.27
2023-04-18T02:35:37.913Z,40.32
2023-04-18T02:36:28.004Z,44.92
2023-04-18T02:37:18.051Z,42.63
2023-04-18T02:38:08.112Z,40.52
2023-04-18T02:38:58.180Z,40.76
2023-04-18T02:39:48.261Z,43.18
2023-04-18T02:40:38.295Z,41.52
2023-04-18T02:41:28.357Z,41.28
2023-04-18T02:42:18.419Z,35.09
2023-04-18T02:43:08.511Z,40.03
2023-04-18T02:43:58.518Z,42.06
2023-04-18T02:44:48.597Z,37.97
2023-04-18T02:45:38.660Z,39.43
2023-04-18T02:46:28.711Z,43.44
2023-04-18T02:47:18.728Z,41.47
2023-04-18T02:48:08.844Z,39.50
2023-04-18T02:48:58.834Z,39.76
2023-04-18T02:49:48.940Z,38.50
2023-04-18T02:50:38.942Z,43.55
2023-04-18T02:51:29.008Z,42.97
2023-04-18T02:52:19.058Z,40.23
2023-04-18T02:53:09.135Z,40.71
2023-04-18T02:53:59.180Z,42.63
2023-04-18T02:54:49.260Z,41.14
2023-04-18T02:55:39.316Z,40.97
2023-04-18T02:56:29.376Z,39.47
2023-04-18T02:57:19.454Z,41.07
2023-04-18T02:58:09.519Z,44.31
2023-04-18T02:58:59.822Z,46.77
2023-04-18T02:59:49.893Z,43.99
2023-04-18T03:00:39.931Z,42.97
2023-04-18T03:01:30.027Z,47.29
2023-04-18T03:02:20.177Z,47.28
2023-04-18T03:03:10.134Z,44.39
2023-04-18T03:04:00.164Z,46.91
2023-04-18T03:04:50.258Z,49.92
2023-04-18T03:05:40.280Z,50.03
2023-04-18T03:06:30.316Z,46.44
2023-04-18T03:07:20.395Z,49.96
2023-04-18T03:08:10.446Z,47.26
2023-04-18T03:09:00.512Z,48.97
2023-04-18T03:09:50.588Z,49.59
2023-04-18T03:10:40.646Z,46.22
2023-04-18T03:11:30.706Z,51.14
2023-04-18T03:12:21.793Z,47.12
2023-04-18T03:13:10.844Z,51.92
2023-04-18T03:14:00.902Z,48.41
2023-04-18T03:14:51.213Z,47.61
2023-04-18T03:15:41.217Z,49.20
2023-04-18T03:16:31.291Z,51.44
2023-04-18T03:17:21.396Z,47.39
2023-04-18T03:18:11.375Z,47.87
2023-04-18T03:19:01.456Z,47.82
2023-04-18T03:19:51.486Z,49.81
2023-04-18T03:20:41.532Z,49.35
2023-04-18T03:21:31.594Z,50.88
2023-04-18T03:22:21.652Z,49.15
2023-04-18T03:23:11.707Z,50.29
2023-04-18T03:24:01.775Z,49.45
2023-04-18T03:24:51.886Z,49.59
2023-04-18T03:25:41.884Z,52.75
2023-04-18T03:26:31.947Z,49.22
2023-04-18T03:27:22.010Z,50.07
2023-04-18T03:28:12.083Z,48.86
2023-04-18T03:29:02.196Z,52.34
2023-04-18T03:29:52.222Z,41.85
2023-04-18T03:30:42.238Z,51.95
2023-04-18T03:31:32.378Z,46.19
2023-04-18T03:32:22.418Z,48.49
2023-04-18T03:33:12.383Z,50.00
2023-04-18T03:34:02.457Z,51.67
2023-04-18T03:34:52.541Z,48.04
2023-04-18T03:35:42.571Z,49.43
2023-04-18T03:36:32.623Z,46.12
2023-04-18T03:37:22.934Z,47.41
2023-04-18T03:38:12.982Z,45.42
2023-04-18T03:39:03.041Z,48.48
2023-04-18T03:39:53.123Z,49.65
2023-04-18T03:40:43.148Z,51.74
2023-04-18T03:41:33.226Z,48.05
2023-04-18T03:42:23.279Z,50.09
2023-04-18T03:43:13.346Z,47.65
2023-04-18T03:44:03.416Z,48.34
2023-04-18T03:44:53.490Z,49.24
2023-04-18T03:45:43.509Z,50.11
2023-04-18T03:46:33.639Z,50.59
2023-04-18T03:47:23.701Z,45.15
2023-04-18T03:48:13.669Z,46.03
2023-04-18T03:49:03.742Z,44.39
2023-04-18T03:49:53.821Z,50.07
2023-04-18T03:50:43.969Z,44.89
2023-04-18T03:51:34.050Z,43.55
2023-04-18T03:52:24.126Z,48.20
2023-04-18T03:53:14.257Z,50.83
2023-04-18T03:54:04.242Z,47.60
2023-04-18T03:54:54.293Z,44.97
2023-04-18T03:55:44.314Z,47.11
2023-04-18T03:56:34.400Z,48.93
2023-04-18T03:57:24.464Z,45.66
2023-04-18T03:58:14.516Z,45.11
2023-04-18T03:59:04.602Z,44.84
2023-04-18T03:59:54.962Z,46.05
2023-04-18T04:00:44.943Z,43.91
2023-04-18T04:01:35.044Z,43.36
2023-04-18T04:02:25.242Z,46.87
2023-04-18T04:03:15.211Z,42.47
2023-04-18T04:04:05.330Z,43.35
2023-04-18T04:04:55.305Z,41.03
2023-04-18T04:05:45.300Z,42.12
2023-04-18T04:06:35.566Z,44.74
2023-04-18T04:07:25.674Z,42.91
2023-04-18T04:08:15.704Z,43.19
2023-04-18T04:09:05.816Z,41.27
2023-04-18T04:09:55.819Z,44.65
2023-04-18T04:10:45.868Z,44.72
2023-04-18T04:11:35.944Z,44.90
2023-04-18T04:12:26.020Z,45.13
2023-04-18T04:13:16.059Z,42.36
2023-04-18T04:14:06.129Z,44.76
2023-04-18T04:14:56.173Z,44.52
2023-04-18T04:15:46.494Z,48.70
2023-04-18T04:16:36.578Z,48.23
2023-04-18T04:17:26.617Z,44.72
2023-04-18T04:18:16.674Z,45.56
2023-04-18T04:19:06.743Z,50.27
2023-04-18T04:19:56.832Z,46.90
2023-04-18T04:20:46.845Z,47.24
2023-04-18T04:21:36.908Z,50.00
2023-04-18T04:22:26.975Z,43.73
2023-04-18T04:23:17.039Z,47.14
2023-04-18T04:24:07.120Z,45.80
2023-04-18T04:24:57.198Z,50.03
2023-04-18T04:25:47.197Z,48.03
2023-04-18T04:26:37.273Z,48.84
2023-04-18T04:27:27.337Z,49.67
2023-04-18T04:28:17.399Z,49.13
2023-04-18T04:29:07.479Z,48.14
2023-04-18T04:29:57.554Z,46.17
2023-04-18T04:30:47.564Z,49.24
2023-04-18T04:31:37.740Z,46.78
2023-04-18T04:32:27.715Z,50.13
2023-04-18T04:33:17.746Z,52.65
2023-04-18T04:34:07.808Z,45.99
2023-04-18T04:34:57.880Z,43.13
2023-04-18T04:35:47.969Z,50.80
2023-04-18T04:36:38.027Z,49.97
2023-04-18T04:37:28.103Z,49.66
2023-04-18T04:38:18.379Z,49.61
2023-04-18T04:39:08.450Z,51.59
2023-04-18T04:39:58.532Z,47.36
2023-04-18T04:40:48.572Z,49.83
2023-04-18T04:41:38.626Z,51.18
2023-04-18T04:42:28.710Z,48.17
2023-04-18T04:43:18.754Z,48.41
2023-04-18T04:44:08.825Z,48.41
2023-04-18T04:44:58.920Z,50.16
2023-04-18T04:45:48.985Z,48.66
2023-04-18T04:46:38.967Z,51.02
2023-04-18T04:47:29.091Z,52.89
2023-04-18T04:48:19.113Z,50.16
2023-04-18T04:49:09.177Z,48.20
2023-04-18T04:49:59.275Z,44.82
2023-04-18T04:50:49.286Z,51.30
2023-04-18T04:51:39.363Z,51.16
2023-04-18T04:52:29.441Z,46.41
2023-04-18T04:53:19.484Z,45.90
2023-04-18T04:54:09.545Z,46.94
2023-04-18T04:54:59.622Z,44.87
2023-04-18T04:55:49.695Z,49.66
2023-04-18T04:56:39.762Z,46.30
2023-04-18T04:57:29.751Z,47.55
2023-04-18T04:58:19.823Z,50.55
2023-04-18T04:59:09.897Z,48.94
2023-04-18T04:59:59.965Z,48.53
2023-04-18T05:00:50.057Z,44.43
2023-04-18T05:01:40.108Z,49.34
2023-04-18T05:02:30.184Z,47.62
2023-04-18T05:03:20.365Z,48.69
2023-04-18T05:04:10.326Z,46.22
2023-04-18T05:05:00.335Z,46.74
2023-04-18T05:05:50.363Z,45.13
2023-04-18T05:06:40.472Z,44.97
2023-04-18T05:07:30.498Z,46.81
2023-04-18T05:08:20.533Z,47.48
2023-04-18T05:09:10.600Z,49.60
2023-04-18T05:10:00.627Z,42.86
2023-04-18T05:10:50.663Z,45.57
2023-04-18T05:11:40.747Z,44.56
2023-04-18T05:12:30.851Z,46.91
2023-04-18T05:13:20.858Z,45.12
2023-04-18T05:14:11.214Z,47.45
2023-04-18T05:15:01.251Z,45.29
2023-04-18T05:15:51.319Z,44.86
2023-04-18T05:16:41.376Z,44.57
2023-04-18T05:17:31.392Z,43.58
2023-04-18T05:18:21.422Z,46.61
2023-04-18T05:19:11.489Z,47.20
2023-04-18T05:20:01.585Z,44.06
2023-04-18T05:20:51.621Z,48.60
2023-04-18T05:21:41.684Z,45.08
2023-04-18T05:22:31.698Z,44.76
2023-04-18T05:23:21.756Z,42.70
2023-04-18T05:24:11.955Z,44.64
2023-04-18T05:25:01.930Z,45.15
2023-04-18T05:25:51.907Z,45.31
2023-04-18T05:26:41.958Z,43.83
2023-04-18T05:27:32.001Z,46.08
2023-04-18T05:28:22.072Z,45.27
2023-04-18T05:29:12.122Z,49.87
2023-04-18T05:30:02.219Z,41.25
2023-04-18T05:30:52.248Z,45.63
2023-04-18T05:31:42.304Z,48.58
2023-04-18T05:32:32.403Z,44.73
2023-04-18T05:33:22.451Z,47.38
2023-04-18T05:34:12.775Z,43.03
2023-04-18T05:35:02.613Z,41.87
2023-04-18T05:35:52.646Z,37.98
2023-04-18T05:36:43.746Z,40.63
2023-04-18T05:37:33.032Z,41.46
2023-04-18T05:38:23.100Z,38.48
2023-04-18T05:39:13.172Z,35.99
2023-04-18T05:40:03.253Z,37.86
2023-04-18T05:40:53.273Z,37.89
2023-04-18T05:41:43.349Z,38.37
2023-04-18T05:42:33.418Z,39.97
2023-04-18T05:43:23.527Z,40.92
2023-04-18T05:44:13.605Z,34.50
2023-04-18T05:45:03.622Z,41.18
2023-04-18T05:45:54.791Z,37.97
2023-04-18T05:46:43.760Z,38.01
2023-04-18T05:47:33.857Z,38.09
2023-04-18T05:48:23.793Z,38.43
2023-04-18T05:49:13.866Z,35.89
2023-04-18T05:50:03.944Z,40.49
2023-04-18T05:50:53.961Z,44.34
2023-04-18T05:51:44.024Z,39.54
2023-04-18T05:52:34.138Z,38.03
2023-04-18T05:53:24.209Z,42.94
2023-04-18T05:54:14.513Z,37.03
2023-04-18T05:55:04.347Z,31.84
2023-04-18T05:55:54.363Z,33.37
2023-04-18T05:56:44.435Z,38.76
2023-04-18T05:57:34.502Z,37.67
2023-04-18T05:58:24.590Z,39.55
2023-04-18T05:59:14.660Z,40.33
2023-04-18T06:00:04.842Z,33.91
2023-04-18T06:00:54.770Z,36.58
2023-04-18T06:01:44.841Z,35.17
2023-04-18T06:02:35.112Z,39.37
2023-04-18T06:03:25.171Z,37.95
2023-04-18T06:04:15.335Z,40.82
2023-04-18T06:05:05.241Z,37.74
2023-04-18T06:05:55.249Z,40.93
2023-04-18T06:06:45.167Z,38.95
2023-04-18T06:07:35.215Z,36.86
2023-04-18T06:08:25.292Z,40.05
2023-04-18T06:09:15.348Z,43.96
2023-04-18T06:10:05.520Z,34.56
2023-04-18T06:10:55.544Z,40.24
2023-04-18T06:11:45.587Z,36.33
2023-04-18T06:12:35.667Z,38.01
2023-04-18T06:13:25.733Z,39.58
2023-04-18T06:14:16.115Z,39.39
2023-04-18T06:15:05.901Z,39.20
2023-04-18T06:15:55.968Z,36.01
2023-04-18T06:16:46.024Z,38.55
2023-04-18T06:17:36.098Z,37.38
2023-04-18T06:18:26.146Z,41.34
2023-04-18T06:19:16.426Z,39.97
2023-04-18T06:20:06.508Z,38.91
2023-04-18T06:20:56.595Z,42.81
2023-04-18T06:21:46.580Z,45.85
2023-04-18T06:22:36.650Z,46.52
2023-04-18T06:23:26.710Z,44.65
2023-04-18T06:24:16.920Z,42.81
2023-04-18T06:25:06.840Z,44.27
2023-04-18T06:25:56.881Z,43.27
2023-04-18T06:26:46.919Z,39.82
2023-04-18T06:27:36.999Z,39.07
2023-04-18T06:28:27.059Z,45.12
2023-04-18T06:29:17.124Z,41.47
2023-04-18T06:30:07.207Z,43.09
2023-04-18T06:30:57.222Z,45.01
2023-04-18T06:31:47.426Z,43.36
2023-04-18T06:32:37.344Z,40.02
2023-04-18T06:33:27.399Z,42.72
2023-04-18T06:34:17.465Z,46.30
2023-04-18T06:35:07.532Z,40.83
2023-04-18T06:35:57.535Z,44.08
2023-04-18T06:36:47.609Z,42.05
2023-04-18T06:37:37.667Z,45.74
2023-04-18T06:38:27.732Z,45.44
2023-04-18T06:39:17.809Z,47.86
2023-04-18T06:40:07.914Z,52.83
2023-04-18T06:40:57.938Z,52.84
2023-04-18T06:41:48.218Z,51.85
2023-04-18T06:42:38.308Z,51.96
2023-04-18T06:43:28.331Z,49.41
2023-04-18T06:44:18.413Z,47.10
2023-04-18T06:45:08.499Z,48.47
2023-04-18T06:45:58.541Z,49.54
2023-04-18T06:46:48.612Z,45.66
2023-04-18T06:47:38.695Z,48.43
2023-04-18T06:48:28.770Z,46.88
2023-04-18T06:49:19.110Z,41.93
2023-04-18T06:50:08.896Z,44.22
2023-04-18T06:50:58.913Z,48.97
2023-04-18T06:51:48.981Z,43.97
2023-04-18T06:52:39.044Z,45.01
2023-04-18T06:53:29.108Z,47.73
2023-04-18T06:54:19.173Z,44.56
2023-04-18T06:55:09.266Z,44.14
2023-04-18T06:55:59.290Z,43.53
2023-04-18T06:56:49.333Z,42.97
2023-04-18T06:57:39.394Z,44.06
2023-04-18T06:58:29.480Z,45.77
2023-04-18T06:59:19.508Z,41.20
2023-04-18T07:00:09.599Z,43.26
2023-04-18T07:00:59.688Z,37.00
2023-04-18T07:01:49.706Z,44.80
2023-04-18T07:02:40.103Z,43.01
2023-04-18T07:03:29.881Z,38.12
2023-04-18T07:04:20.279Z,43.47
2023-04-18T07:05:09.929Z,42.26
2023-04-18T07:06:00.210Z,43.72
2023-04-18T07:06:50.364Z,40.96
2023-04-18T07:07:40.350Z,45.03
2023-04-18T07:08:30.422Z,44.22
2023-04-18T07:09:20.495Z,44.38
2023-04-18T07:10:10.577Z,42.20
2023-04-18T07:11:00.606Z,43.69
2023-04-18T07:11:50.690Z,47.35
2023-04-18T07:12:40.760Z,46.14
2023-04-18T07:13:30.817Z,46.91
2023-04-18T07:14:20.883Z,43.79
2023-04-18T07:15:10.976Z,46.96
2023-04-18T07:16:00.996Z,45.78
2023-04-18T07:16:51.100Z,49.84
2023-04-18T07:17:41.205Z,48.12
2023-04-18T07:18:38.111Z,47.23
2023-04-18T07:19:22.246Z,47.24
2023-04-18T07:20:13.011Z,40.38
2023-04-18T07:21:01.377Z,44.48
2023-04-18T07:21:51.431Z,44.68
2023-04-18T07:22:41.493Z,47.60
2023-04-18T07:23:31.540Z,45.47
2023-04-18T07:24:21.605Z,47.46
2023-04-18T07:25:11.702Z,47.22
2023-04-18T07:26:01.707Z,45.15
2023-04-18T07:26:54.420Z,43.76
2023-04-18T07:27:41.816Z,46.28
2023-04-18T07:28:31.889Z,45.70
2023-04-18T07:29:21.954Z,44.72
2023-04-18T07:30:12.051Z,45.04
2023-04-18T07:31:02.239Z,45.14
2023-04-18T07:31:52.254Z,49.03
2023-04-18T07:32:42.326Z,44.86
2023-04-18T07:33:32.583Z,49.44
2023-04-18T07:34:22.864Z,47.30
2023-04-18T07:35:12.713Z,46.98
2023-04-18T07:36:02.808Z,47.51
2023-04-18T07:36:52.794Z,44.24
2023-04-18T07:37:42.860Z,46.27
2023-04-18T07:38:32.895Z,46.97
2023-04-18T07:39:22.940Z,47.16
2023-04-18T07:40:13.027Z,42.63
2023-04-18T07:41:03.053Z,49.66
2023-04-18T07:41:53.080Z,43.42
2023-04-18T07:42:43.183Z,46.23
2023-04-18T07:43:33.228Z,44.49
2023-04-18T07:44:23.285Z,46.46
2023-04-18T07:45:13.439Z,46.77
2023-04-18T07:46:03.422Z,48.01
2023-04-18T07:46:53.482Z,47.85
2023-04-18T07:47:43.627Z,47.43
2023-04-18T07:48:33.620Z,48.36
2023-04-18T07:49:23.871Z,45.41
2023-04-18T07:50:13.947Z,46.26
2023-04-18T07:51:03.948Z,44.75
2023-04-18T07:51:54.198Z,48.64
2023-04-18T07:52:44.090Z,44.71
2023-04-18T07:53:34.168Z,46.45
2023-04-18T07:54:24.203Z,47.10
2023-04-18T07:55:14.316Z,46.71
2023-04-18T07:56:04.430Z,47.87
2023-04-18T07:56:54.449Z,44.12
2023-04-18T07:57:45.970Z,44.95
2023-04-18T07:58:34.583Z,46.53
2023-04-18T07:59:24.670Z,43.20
2023-04-18T08:00:14.962Z,46.36
2023-04-18T08:01:05.003Z,42.73
2023-04-18T08:01:55.075Z,43.22
2023-04-18T08:02:45.262Z,45.88
2023-04-18T08:03:35.282Z,38.92
2023-04-18T08:04:27.584Z,44.72
2023-04-18T08:05:15.361Z,44.74
2023-04-18T08:06:05.410Z,44.76
2023-04-18T08:06:55.432Z,45.30
2023-04-18T08:07:45.484Z,42.71
2023-04-18T08:08:35.548Z,43.97
2023-04-18T08:09:25.610Z,44.06
2023-04-18T08:10:15.694Z,42.53
2023-04-18T08:11:05.750Z,40.65
2023-04-18T08:11:55.788Z,45.65
2023-04-18T08:12:45.858Z,41.23
2023-04-18T08:13:35.926Z,43.99
2023-04-18T08:14:26.002Z,43.83
2023-04-18T08:15:16.082Z,41.15
2023-04-18T08:16:06.162Z,42.97
2023-04-18T08:16:56.181Z,41.94
2023-04-18T08:17:46.307Z,47.63
2023-04-18T08:18:36.559Z,38.66
2023-04-18T08:19:26.625Z,40.50
2023-04-18T08:20:16.722Z,42.96
2023-04-18T08:21:06.759Z,45.14
2023-04-18T08:21:56.873Z,41.08
2023-04-18T08:23:02.372Z,40.11
2023-04-18T08:23:37.930Z,39.42
2023-04-18T08:24:27.026Z,40.24
2023-04-18T08:25:17.045Z,41.30
2023-04-18T08:26:07.077Z,41.84
2023-04-18T08:26:57.132Z,44.16
2023-04-18T08:27:47.204Z,41.65
2023-04-18T08:28:37.263Z,41.59
2023-04-18T08:29:27.599Z,39.96
2023-04-18T08:30:17.611Z,42.04
2023-04-18T08:31:07.650Z,36.19
2023-04-18T08:31:57.764Z,40.72
2023-04-18T08:32:47.787Z,45.61
2023-04-18T08:33:37.793Z,38.02
2023-04-18T08:34:27.864Z,41.03
2023-04-18T08:35:17.952Z,41.55
2023-04-18T08:36:08.119Z,41.17
2023-04-18T08:36:58.535Z,40.89
2023-04-18T08:37:48.230Z,42.32
2023-04-18T08:38:38.307Z,41.57
2023-04-18T08:39:28.378Z,41.93
2023-04-18T08:40:18.482Z,42.94
2023-04-18T08:41:08.492Z,42.82
2023-04-18T08:41:58.575Z,40.63
2023-04-18T08:42:48.640Z,40.18
2023-04-18T08:43:38.699Z,37.55
2023-04-18T08:44:28.736Z,44.38
2023-04-18T08:45:18.798Z,42.48
2023-04-18T08:46:08.826Z,40.75
2023-04-18T08:46:58.885Z,43.70
2023-04-18T08:47:48.996Z,42.70
2023-04-18T08:48:39.025Z,40.15
2023-04-18T08:49:29.100Z,43.27
2023-04-18T08:50:19.192Z,40.89
2023-04-18T08:51:09.207Z,38.27
2023-04-18T08:51:59.282Z,40.02
2023-04-18T08:52:49.340Z,37.14
2023-04-18T08:53:39.411Z,38.45
2023-04-18T08:54:29.451Z,40.06
2023-04-18T08:55:19.550Z,38.60
2023-04-18T08:56:09.604Z,38.15
2023-04-18T08:56:59.633Z,35.24
2023-04-18T08:57:49.705Z,42.66
2023-04-18T08:58:39.778Z,43.93
2023-04-18T08:59:29.848Z,36.94
2023-04-18T09:00:20.088Z,36.74
2023-04-18T09:01:10.004Z,36.52
2023-04-18T09:02:00.067Z,40.95
2023-04-18T09:02:50.260Z,39.56
2023-04-18T09:03:40.235Z,42.76
2023-04-18T09:04:30.300Z,38.90
2023-04-18T09:05:20.262Z,35.45
2023-04-18T09:06:10.300Z,38.58
2023-04-18T09:07:00.320Z,41.11
2023-04-18T09:07:50.400Z,36.32
2023-04-18T09:08:40.440Z,37.12
2023-04-18T09:09:30.493Z,39.52
2023-04-18T09:10:20.579Z,41.78
2023-04-18T09:11:10.617Z,39.14
2023-04-18T09:12:00.685Z,41.70
2023-04-18T09:12:50.839Z,39.80
2023-04-18T09:13:40.815Z,38.06
2023-04-18T09:14:30.880Z,33.53
2023-04-18T09:15:20.984Z,33.57
2023-04-18T09:16:11.058Z,33.77
2023-04-18T09:17:01.210Z,39.28
2023-04-18T09:17:51.310Z,39.41
2023-04-18T09:18:41.445Z,38.16
2023-04-18T09:19:31.513Z,37.31
2023-04-18T09:20:21.594Z,37.14
2023-04-18T09:21:11.630Z,37.43
2023-04-18T09:22:01.696Z,35.55
2023-04-18T09:22:51.780Z,34.71
2023-04-18T09:23:41.831Z,39.46
2023-04-18T09:24:31.896Z,37.91
2023-04-18T09:25:21.966Z,38.94
2023-04-18T09:26:11.994Z,34.12
2023-04-18T09:27:02.061Z,35.14
2023-04-18T09:27:52.434Z,36.91
2023-04-18T09:28:42.449Z,35.45
2023-04-18T09:29:32.467Z,38.42
2023-04-18T09:30:22.549Z,32.97
2023-04-18T09:31:12.625Z,34.76
2023-04-18T09:32:02.647Z,40.61
2023-04-18T09:32:52.750Z,36.94
2023-04-18T09:33:42.793Z,39.87
2023-04-18T09:34:32.865Z,38.07
2023-04-18T09:35:22.951Z,36.40
2023-04-18T09:36:12.969Z,37.57
2023-04-18T09:37:03.323Z,34.90
2023-04-18T09:37:53.368Z,35.60
2023-04-18T09:38:43.401Z,30.55
2023-04-18T09:39:33.437Z,35.29
2023-04-18T09:40:23.585Z,41.54
2023-04-18T09:41:13.573Z,34.15
2023-04-18T09:42:03.644Z,39.09
2023-04-18T09:42:53.711Z,37.82
2023-04-18T09:43:43.782Z,35.58
2023-04-18T09:44:33.881Z,35.35
2023-04-18T09:45:23.933Z,38.61
2023-04-18T09:46:14.003Z,36.46
2023-04-18T09:47:04.016Z,37.56
2023-04-18T09:47:54.138Z,37.73
2023-04-18T09:48:44.161Z,35.40
2023-04-18T09:49:34.214Z,34.94
2023-04-18T09:50:24.409Z,37.43
2023-04-18T09:51:14.322Z,37.21
2023-04-18T09:52:04.360Z,36.34
2023-04-18T09:52:54.647Z,32.08
2023-04-18T09:53:44.756Z,33.93
2023-04-18T09:54:34.765Z,34.45
2023-04-18T09:55:24.857Z,33.90
2023-04-18T09:56:15.075Z,34.78
2023-04-18T09:57:04.937Z,35.32
2023-04-18T09:57:54.962Z,36.34
2023-04-18T09:58:45.043Z,35.91
2023-04-18T09:59:35.083Z,38.37
2023-04-18T10:00:25.168Z,36.66
2023-04-18T10:01:15.229Z,34.05
2023-04-18T10:02:05.380Z,31.90
2023-04-18T10:02:55.369Z,36.11
2023-04-18T10:03:45.478Z,36.68
2023-04-18T10:04:35.746Z,36.72
2023-04-18T10:05:25.576Z,36.42
2023-04-18T10:06:15.588Z,36.38
2023-04-18T10:07:05.700Z,34.37
2023-04-18T10:07:55.737Z,36.87
2023-04-18T10:08:45.758Z,37.14
2023-04-18T10:09:35.793Z,36.03
2023-04-18T10:10:25.877Z,32.97
2023-04-18T10:11:15.901Z,33.20
2023-04-18T10:12:06.019Z,36.37
2023-04-18T10:12:56.063Z,35.87
2023-04-18T10:13:46.117Z,32.73
2023-04-18T10:14:36.193Z,33.96
2023-04-18T10:15:26.306Z,36.16
2023-04-18T10:16:16.390Z,35.35
2023-04-18T10:17:06.377Z,34.54
2023-04-18T10:18:04.171Z,35.82
2023-04-18T10:18:47.508Z,34.68
2023-04-18T10:19:36.551Z,31.88
2023-04-18T10:20:26.626Z,35.86
2023-04-18T10:21:16.641Z,34.66
2023-04-18T10:22:06.710Z,35.73
2023-04-18T10:22:56.800Z,34.67
2023-04-18T10:23:46.839Z,31.22
2023-04-18T10:24:37.082Z,36.83
2023-04-18T10:25:27.171Z,33.59
2023-04-18T10:26:17.181Z,28.46
2023-04-18T10:27:07.258Z,32.40
2023-04-18T10:27:57.452Z,34.07
2023-04-18T10:28:47.382Z,30.80
2023-04-18T10:29:37.454Z,34.95
2023-04-18T10:30:27.535Z,33.36
2023-04-18T10:31:17.645Z,36.66
2023-04-18T10:32:07.661Z,33.44
2023-04-18T10:32:57.765Z,28.43
2023-04-18T10:34:37.830Z,30.64
2023-04-18T10:35:27.926Z,30.97
2023-04-18T10:36:17.939Z,31.94
2023-04-18T10:37:08.021Z,31.45
2023-04-18T10:37:58.087Z,32.53
2023-04-18T10:38:48.159Z,32.41
2023-04-18T10:39:38.241Z,31.21
2023-04-18T10:40:28.315Z,32.16
2023-04-18T10:41:18.510Z,33.45
2023-04-18T10:42:08.585Z,30.64
2023-04-18T10:42:58.649Z,29.27
2023-04-18T10:43:48.755Z,36.21
2023-04-18T10:44:38.780Z,30.50
2023-04-18T10:45:28.879Z,31.46